sensor_id;sensor_type;location;lat;lon;timestamp;P1;durP1;ratioP1;P2;durP2;ratioP2
10170;SDS011;5127;50.922;6.988;2022-10-15T00:00:27;3.27;;;1.97;;
10170;SDS011;5127;50.922;6.988;2022-10-15T00:02:54;3.33;;;2.70;;
10170;SDS011;5127;50.922;6.988;2022-10-15T00:05:22;3.93;;;3.03;;
10170;SDS011;5127;50.922;6.988;2022-10-15T00:07:49;4.67;;;2.77;;
10170;SDS011;5127;50.922;6.988;2022-10-15T00:10:17;3.20;;;2.67;;
10170;SDS011;5127;50.922;6.988;2022-10-15T00:12:45;2.97;;;2.40;;
10170;SDS011;5127;50.922;6.988;2022-10-15T00:15:12;3.50;;;2.47;;
10170;SDS011;5127;50.922;6.988;2022-10-15T00:17:41;2.73;;;2.30;;
10170;SDS011;5127;50.922;6.988;2022-10-15T00:20:09;2.90;;;2.13;;
10170;SDS011;5127;50.922;6.988;2022-10-15T00:22:37;3.27;;;2.60;;
10170;SDS011;5127;50.922;6.988;2022-10-15T00:25:04;2.30;;;2.10;;
10170;SDS011;5127;50.922;6.988;2022-10-15T00:27:33;2.80;;;1.73;;
10170;SDS011;5127;50.922;6.988;2022-10-15T00:30:00;1.97;;;1.77;;
10170;SDS011;5127;50.922;6.988;2022-10-15T00:32:28;2.07;;;1.90;;
10170;SDS011;5127;50.922;6.988;2022-10-15T00:34:58;2.23;;;1.97;;
10170;SDS011;5127;50.922;6.988;2022-10-15T00:37:25;2.43;;;1.93;;
10170;SDS011;5127;50.922;6.988;2022-10-15T00:39:52;2.17;;;1.97;;
10170;SDS011;5127;50.922;6.988;2022-10-15T00:42:19;1.87;;;1.77;;
10170;SDS011;5127;50.922;6.988;2022-10-15T00:44:48;5.73;;;2.20;;
10170;SDS011;5127;50.922;6.988;2022-10-15T00:47:22;3.77;;;2.20;;
10170;SDS011;5127;50.922;6.988;2022-10-15T00:49:55;3.03;;;2.77;;
10170;SDS011;5127;50.922;6.988;2022-10-15T00:52:29;2.33;;;2.00;;
10170;SDS011;5127;50.922;6.988;2022-10-15T00:55:02;2.43;;;1.77;;
10170;SDS011;5127;50.922;6.988;2022-10-15T00:57:33;2.07;;;1.97;;
10170;SDS011;5127;50.922;6.988;2022-10-15T01:00:03;1.97;;;1.87;;
10170;SDS011;5127;50.922;6.988;2022-10-15T01:02:33;2.00;;;1.90;;
10170;SDS011;5127;50.922;6.988;2022-10-15T01:05:02;2.13;;;1.93;;
10170;SDS011;5127;50.922;6.988;2022-10-15T01:07:30;2.43;;;2.23;;
10170;SDS011;5127;50.922;6.988;2022-10-15T01:09:57;2.77;;;2.57;;
10170;SDS011;5127;50.922;6.988;2022-10-15T01:12:27;2.80;;;2.60;;
10170;SDS011;5127;50.922;6.988;2022-10-15T01:15:06;3.13;;;2.93;;
10170;SDS011;5127;50.922;6.988;2022-10-15T01:17:43;2.53;;;2.33;;
10170;SDS011;5127;50.922;6.988;2022-10-15T01:20:32;2.73;;;1.97;;
10170;SDS011;5127;50.922;6.988;2022-10-15T01:26:24;2.97;;;2.77;;
10170;SDS011;5127;50.922;6.988;2022-10-15T01:29:22;2.60;;;2.40;;
10170;SDS011;5127;50.922;6.988;2022-10-15T01:32:10;2.57;;;2.37;;
10170;SDS011;5127;50.922;6.988;2022-10-15T01:34:46;2.43;;;2.23;;
10170;SDS011;5127;50.922;6.988;2022-10-15T01:37:20;3.30;;;2.37;;
10170;SDS011;5127;50.922;6.988;2022-10-15T01:39:57;2.80;;;2.57;;
10170;SDS011;5127;50.922;6.988;2022-10-15T01:42:32;2.87;;;2.67;;
10170;SDS011;5127;50.922;6.988;2022-10-15T01:45:06;2.83;;;2.63;;
10170;SDS011;5127;50.922;6.988;2022-10-15T01:48:08;2.47;;;2.30;;
10170;SDS011;5127;50.922;6.988;2022-10-15T01:50:39;3.37;;;2.63;;
10170;SDS011;5127;50.922;6.988;2022-10-15T01:53:10;2.83;;;2.63;;
10170;SDS011;5127;50.922;6.988;2022-10-15T01:55:40;3.23;;;2.50;;
10170;SDS011;5127;50.922;6.988;2022-10-15T01:58:11;4.20;;;3.27;;
10170;SDS011;5127;50.922;6.988;2022-10-15T02:00:40;3.33;;;2.83;;
10170;SDS011;5127;50.922;6.988;2022-10-15T02:03:10;4.03;;;3.73;;
10170;SDS011;5127;50.922;6.988;2022-10-15T02:05:37;3.17;;;2.97;;
10170;SDS011;5127;50.922;6.988;2022-10-15T02:08:12;3.10;;;2.90;;
10170;SDS011;5127;50.922;6.988;2022-10-15T02:10:48;3.10;;;2.90;;
10170;SDS011;5127;50.922;6.988;2022-10-15T02:13:21;3.03;;;2.83;;
10170;SDS011;5127;50.922;6.988;2022-10-15T02:15:57;3.37;;;3.07;;
10170;SDS011;5127;50.922;6.988;2022-10-15T02:18:35;4.10;;;3.70;;
10170;SDS011;5127;50.922;6.988;2022-10-15T02:21:06;3.20;;;3.00;;
10170;SDS011;5127;50.922;6.988;2022-10-15T02:23:39;3.00;;;2.80;;
10170;SDS011;5127;50.922;6.988;2022-10-15T02:26:11;3.50;;;3.20;;
10170;SDS011;5127;50.922;6.988;2022-10-15T02:28:41;3.13;;;2.83;;
10170;SDS011;5127;50.922;6.988;2022-10-15T02:31:11;3.30;;;3.00;;
10170;SDS011;5127;50.922;6.988;2022-10-15T02:33:42;4.10;;;3.30;;
10170;SDS011;5127;50.922;6.988;2022-10-15T02:36:12;3.43;;;2.90;;
10170;SDS011;5127;50.922;6.988;2022-10-15T02:38:40;3.23;;;2.93;;
10170;SDS011;5127;50.922;6.988;2022-10-15T02:41:10;3.17;;;2.90;;
10170;SDS011;5127;50.922;6.988;2022-10-15T02:43:39;3.47;;;3.17;;
10170;SDS011;5127;50.922;6.988;2022-10-15T02:46:07;3.53;;;3.23;;
10170;SDS011;5127;50.922;6.988;2022-10-15T02:48:37;3.27;;;3.07;;
10170;SDS011;5127;50.922;6.988;2022-10-15T02:51:06;4.20;;;3.80;;
10170;SDS011;5127;50.922;6.988;2022-10-15T02:53:33;4.27;;;3.90;;
10170;SDS011;5127;50.922;6.988;2022-10-15T02:56:02;4.00;;;3.67;;
10170;SDS011;5127;50.922;6.988;2022-10-15T02:58:30;3.17;;;2.97;;
10170;SDS011;5127;50.922;6.988;2022-10-15T03:00:57;3.40;;;3.10;;
10170;SDS011;5127;50.922;6.988;2022-10-15T03:03:25;4.17;;;3.40;;
10170;SDS011;5127;50.922;6.988;2022-10-15T03:05:52;3.47;;;3.17;;
10170;SDS011;5127;50.922;6.988;2022-10-15T03:08:21;3.20;;;3.00;;
10170;SDS011;5127;50.922;6.988;2022-10-15T03:10:48;3.43;;;3.13;;
10170;SDS011;5127;50.922;6.988;2022-10-15T03:13:16;3.73;;;3.43;;
10170;SDS011;5127;50.922;6.988;2022-10-15T03:15:48;5.43;;;3.60;;
10170;SDS011;5127;50.922;6.988;2022-10-15T03:18:15;3.60;;;3.30;;
10170;SDS011;5127;50.922;6.988;2022-10-15T03:20:42;4.27;;;3.73;;
10170;SDS011;5127;50.922;6.988;2022-10-15T03:23:12;4.77;;;3.73;;
10170;SDS011;5127;50.922;6.988;2022-10-15T03:25:40;3.97;;;3.50;;
10170;SDS011;5127;50.922;6.988;2022-10-15T03:28:12;3.80;;;3.50;;
10170;SDS011;5127;50.922;6.988;2022-10-15T03:30:40;3.80;;;3.50;;
10170;SDS011;5127;50.922;6.988;2022-10-15T03:33:09;4.13;;;3.73;;
10170;SDS011;5127;50.922;6.988;2022-10-15T03:35:37;4.23;;;3.93;;
10170;SDS011;5127;50.922;6.988;2022-10-15T03:38:05;3.90;;;3.57;;
10170;SDS011;5127;50.922;6.988;2022-10-15T03:40:33;4.03;;;3.63;;
10170;SDS011;5127;50.922;6.988;2022-10-15T03:43:17;3.73;;;3.43;;
10170;SDS011;5127;50.922;6.988;2022-10-15T03:45:44;3.70;;;3.40;;
10170;SDS011;5127;50.922;6.988;2022-10-15T03:48:21;3.37;;;3.17;;
10170;SDS011;5127;50.922;6.988;2022-10-15T03:50:48;3.43;;;3.13;;
10170;SDS011;5127;50.922;6.988;2022-10-15T03:53:15;3.17;;;2.87;;
10170;SDS011;5127;50.922;6.988;2022-10-15T03:55:43;3.57;;;3.27;;
10170;SDS011;5127;50.922;6.988;2022-10-15T03:58:10;3.43;;;3.13;;
10170;SDS011;5127;50.922;6.988;2022-10-15T04:00:47;3.23;;;3.00;;
10170;SDS011;5127;50.922;6.988;2022-10-15T04:03:15;4.50;;;3.73;;
10170;SDS011;5127;50.922;6.988;2022-10-15T04:05:48;3.83;;;3.53;;
10170;SDS011;5127;50.922;6.988;2022-10-15T04:08:16;4.17;;;3.80;;
10170;SDS011;5127;50.922;6.988;2022-10-15T04:10:44;4.37;;;3.87;;
10170;SDS011;5127;50.922;6.988;2022-10-15T04:13:12;4.53;;;4.13;;
10170;SDS011;5127;50.922;6.988;2022-10-15T04:15:41;4.37;;;4.07;;
10170;SDS011;5127;50.922;6.988;2022-10-15T04:18:12;4.80;;;4.40;;
10170;SDS011;5127;50.922;6.988;2022-10-15T04:20:40;4.90;;;4.20;;
10170;SDS011;5127;50.922;6.988;2022-10-15T04:23:11;4.27;;;3.87;;
10170;SDS011;5127;50.922;6.988;2022-10-15T04:25:42;3.90;;;3.60;;
10170;SDS011;5127;50.922;6.988;2022-10-15T04:28:11;4.00;;;3.70;;
10170;SDS011;5127;50.922;6.988;2022-10-15T04:30:39;5.20;;;4.27;;
10170;SDS011;5127;50.922;6.988;2022-10-15T04:33:10;4.63;;;4.23;;
10170;SDS011;5127;50.922;6.988;2022-10-15T04:35:40;5.53;;;4.87;;
10170;SDS011;5127;50.922;6.988;2022-10-15T04:38:11;5.40;;;4.90;;
10170;SDS011;5127;50.922;6.988;2022-10-15T04:41:02;5.63;;;5.13;;
10170;SDS011;5127;50.922;6.988;2022-10-15T04:43:45;5.27;;;4.77;;
10170;SDS011;5127;50.922;6.988;2022-10-15T04:46:13;4.77;;;4.37;;
10170;SDS011;5127;50.922;6.988;2022-10-15T04:48:40;5.00;;;4.50;;
10170;SDS011;5127;50.922;6.988;2022-10-15T04:51:11;5.10;;;4.70;;
10170;SDS011;5127;50.922;6.988;2022-10-15T04:53:59;4.80;;;4.40;;
10170;SDS011;5127;50.922;6.988;2022-10-15T04:56:28;5.23;;;4.53;;
10170;SDS011;5127;50.922;6.988;2022-10-15T04:58:56;4.00;;;3.70;;
10170;SDS011;5127;50.922;6.988;2022-10-15T05:01:26;5.47;;;4.97;;
10170;SDS011;5127;50.922;6.988;2022-10-15T05:03:58;4.70;;;4.30;;
10170;SDS011;5127;50.922;6.988;2022-10-15T05:06:27;4.23;;;3.93;;
10170;SDS011;5127;50.922;6.988;2022-10-15T05:09:02;4.90;;;4.20;;
10170;SDS011;5127;50.922;6.988;2022-10-15T05:11:31;4.70;;;4.30;;
10170;SDS011;5127;50.922;6.988;2022-10-15T05:14:01;5.07;;;4.67;;
10170;SDS011;5127;50.922;6.988;2022-10-15T05:16:31;5.00;;;4.53;;
10170;SDS011;5127;50.922;6.988;2022-10-15T05:19:01;5.33;;;4.83;;
10170;SDS011;5127;50.922;6.988;2022-10-15T05:21:33;5.03;;;4.60;;
10170;SDS011;5127;50.922;6.988;2022-10-15T05:24:04;4.67;;;4.27;;
10170;SDS011;5127;50.922;6.988;2022-10-15T05:26:48;4.80;;;4.40;;
10170;SDS011;5127;50.922;6.988;2022-10-15T05:29:15;4.70;;;4.27;;
10170;SDS011;5127;50.922;6.988;2022-10-15T05:31:42;4.97;;;4.20;;
10170;SDS011;5127;50.922;6.988;2022-10-15T05:34:16;4.40;;;4.00;;
10170;SDS011;5127;50.922;6.988;2022-10-15T05:36:58;4.77;;;3.53;;
10170;SDS011;5127;50.922;6.988;2022-10-15T05:39:26;5.17;;;3.83;;
10170;SDS011;5127;50.922;6.988;2022-10-15T05:41:54;6.00;;;5.30;;
10170;SDS011;5127;50.922;6.988;2022-10-15T05:44:37;4.60;;;4.20;;
10170;SDS011;5127;50.922;6.988;2022-10-15T05:47:05;3.93;;;3.53;;
10170;SDS011;5127;50.922;6.988;2022-10-15T05:49:36;3.73;;;3.43;;
10170;SDS011;5127;50.922;6.988;2022-10-15T05:52:11;6.03;;;3.23;;
10170;SDS011;5127;50.922;6.988;2022-10-15T05:54:58;3.60;;;3.30;;
10170;SDS011;5127;50.922;6.988;2022-10-15T05:57:25;3.53;;;3.23;;
10170;SDS011;5127;50.922;6.988;2022-10-15T05:59:53;6.00;;;4.63;;
10170;SDS011;5127;50.922;6.988;2022-10-15T06:02:20;6.27;;;5.67;;
10170;SDS011;5127;50.922;6.988;2022-10-15T06:04:47;6.10;;;5.50;;
10170;SDS011;5127;50.922;6.988;2022-10-15T06:07:17;3.87;;;3.57;;
10170;SDS011;5127;50.922;6.988;2022-10-15T06:09:44;3.70;;;3.40;;
10170;SDS011;5127;50.922;6.988;2022-10-15T06:12:12;2.73;;;2.53;;
10170;SDS011;5127;50.922;6.988;2022-10-15T06:14:39;2.70;;;2.50;;
10170;SDS011;5127;50.922;6.988;2022-10-15T06:17:06;3.13;;;2.63;;
10170;SDS011;5127;50.922;6.988;2022-10-15T06:19:33;2.43;;;2.23;;
10170;SDS011;5127;50.922;6.988;2022-10-15T06:22:00;2.57;;;2.33;;
10170;SDS011;5127;50.922;6.988;2022-10-15T06:24:29;2.87;;;2.60;;
10170;SDS011;5127;50.922;6.988;2022-10-15T06:26:57;3.30;;;2.40;;
10170;SDS011;5127;50.922;6.988;2022-10-15T06:29:24;2.73;;;2.53;;
10170;SDS011;5127;50.922;6.988;2022-10-15T06:31:53;2.77;;;2.30;;
10170;SDS011;5127;50.922;6.988;2022-10-15T06:34:20;2.37;;;2.17;;
10170;SDS011;5127;50.922;6.988;2022-10-15T06:36:48;2.33;;;2.10;;
10170;SDS011;5127;50.922;6.988;2022-10-15T06:39:15;3.87;;;2.37;;
10170;SDS011;5127;50.922;6.988;2022-10-15T06:41:44;5.07;;;3.07;;
10170;SDS011;5127;50.922;6.988;2022-10-15T06:44:12;2.90;;;2.37;;
10170;SDS011;5127;50.922;6.988;2022-10-15T06:46:39;4.73;;;3.43;;
10170;SDS011;5127;50.922;6.988;2022-10-15T06:49:06;5.77;;;3.30;;
10170;SDS011;5127;50.922;6.988;2022-10-15T06:51:34;2.80;;;2.50;;
10170;SDS011;5127;50.922;6.988;2022-10-15T06:54:02;2.90;;;2.20;;
10170;SDS011;5127;50.922;6.988;2022-10-15T06:56:29;2.47;;;2.27;;
10170;SDS011;5127;50.922;6.988;2022-10-15T06:58:58;2.30;;;2.20;;
10170;SDS011;5127;50.922;6.988;2022-10-15T07:01:25;2.57;;;1.70;;
10170;SDS011;5127;50.922;6.988;2022-10-15T07:03:53;1.80;;;1.70;;
10170;SDS011;5127;50.922;6.988;2022-10-15T07:06:20;3.03;;;1.50;;
10170;SDS011;5127;50.922;6.988;2022-10-15T07:08:47;1.40;;;1.30;;
10170;SDS011;5127;50.922;6.988;2022-10-15T07:11:15;1.73;;;1.63;;
10170;SDS011;5127;50.922;6.988;2022-10-15T07:13:42;2.00;;;1.60;;
10170;SDS011;5127;50.922;6.988;2022-10-15T07:16:11;1.50;;;1.40;;
10170;SDS011;5127;50.922;6.988;2022-10-15T07:18:39;1.63;;;1.40;;
10170;SDS011;5127;50.922;6.988;2022-10-15T07:21:06;1.77;;;1.67;;
10170;SDS011;5127;50.922;6.988;2022-10-15T07:23:35;1.63;;;1.53;;
10170;SDS011;5127;50.922;6.988;2022-10-15T07:26:02;1.70;;;1.60;;
10170;SDS011;5127;50.922;6.988;2022-10-15T07:28:30;2.00;;;1.90;;
10170;SDS011;5127;50.922;6.988;2022-10-15T07:30:59;1.90;;;1.80;;
10170;SDS011;5127;50.922;6.988;2022-10-15T07:33:28;1.70;;;1.60;;
10170;SDS011;5127;50.922;6.988;2022-10-15T07:36:00;2.00;;;1.73;;
10170;SDS011;5127;50.922;6.988;2022-10-15T07:38:29;1.70;;;1.60;;
10170;SDS011;5127;50.922;6.988;2022-10-15T07:40:57;1.87;;;1.77;;
10170;SDS011;5127;50.922;6.988;2022-10-15T07:43:25;2.13;;;1.70;;
10170;SDS011;5127;50.922;6.988;2022-10-15T07:45:53;1.70;;;1.60;;
10170;SDS011;5127;50.922;6.988;2022-10-15T07:48:20;2.00;;;1.73;;
10170;SDS011;5127;50.922;6.988;2022-10-15T07:50:53;1.70;;;1.60;;
10170;SDS011;5127;50.922;6.988;2022-10-15T07:53:20;1.67;;;1.57;;
10170;SDS011;5127;50.922;6.988;2022-10-15T07:55:51;1.70;;;1.60;;
10170;SDS011;5127;50.922;6.988;2022-10-15T07:58:18;1.40;;;1.30;;
10170;SDS011;5127;50.922;6.988;2022-10-15T08:00:46;1.40;;;1.30;;
10170;SDS011;5127;50.922;6.988;2022-10-15T08:03:13;2.23;;;1.13;;
10170;SDS011;5127;50.922;6.988;2022-10-15T08:05:40;1.33;;;1.17;;
10170;SDS011;5127;50.922;6.988;2022-10-15T08:08:09;1.63;;;1.20;;
10170;SDS011;5127;50.922;6.988;2022-10-15T08:10:36;1.40;;;1.30;;
10170;SDS011;5127;50.922;6.988;2022-10-15T08:13:03;1.17;;;1.10;;
10170;SDS011;5127;50.922;6.988;2022-10-15T08:15:31;1.13;;;1.00;;
10170;SDS011;5127;50.922;6.988;2022-10-15T08:17:58;1.30;;;1.20;;
10170;SDS011;5127;50.922;6.988;2022-10-15T08:20:25;1.53;;;1.00;;
10170;SDS011;5127;50.922;6.988;2022-10-15T08:22:53;1.20;;;1.20;;
10170;SDS011;5127;50.922;6.988;2022-10-15T08:25:21;1.73;;;0.97;;
10170;SDS011;5127;50.922;6.988;2022-10-15T08:27:48;3.00;;;1.10;;
10170;SDS011;5127;50.922;6.988;2022-10-15T08:30:16;1.90;;;1.23;;
10170;SDS011;5127;50.922;6.988;2022-10-15T08:32:43;1.37;;;0.90;;
10170;SDS011;5127;50.922;6.988;2022-10-15T08:35:10;2.10;;;0.93;;
10170;SDS011;5127;50.922;6.988;2022-10-15T08:37:38;1.30;;;1.13;;
10170;SDS011;5127;50.922;6.988;2022-10-15T08:40:05;1.80;;;1.13;;
10170;SDS011;5127;50.922;6.988;2022-10-15T08:42:36;2.03;;;1.07;;
10170;SDS011;5127;50.922;6.988;2022-10-15T08:45:06;1.00;;;1.00;;
10170;SDS011;5127;50.922;6.988;2022-10-15T08:47:40;0.93;;;0.80;;
10170;SDS011;5127;50.922;6.988;2022-10-15T08:50:13;1.37;;;0.77;;
10170;SDS011;5127;50.922;6.988;2022-10-15T08:52:47;1.87;;;1.00;;
10170;SDS011;5127;50.922;6.988;2022-10-15T08:55:16;1.03;;;0.93;;
10170;SDS011;5127;50.922;6.988;2022-10-15T08:57:47;0.97;;;0.97;;
10170;SDS011;5127;50.922;6.988;2022-10-15T09:00:19;0.93;;;0.93;;
10170;SDS011;5127;50.922;6.988;2022-10-15T09:02:53;0.85;;;0.85;;
10170;SDS011;5127;50.922;6.988;2022-10-15T09:05:28;1.60;;;0.90;;
10170;SDS011;5127;50.922;6.988;2022-10-15T09:08:03;1.10;;;1.00;;
10170;SDS011;5127;50.922;6.988;2022-10-15T09:10:40;1.73;;;1.00;;
10170;SDS011;5127;50.922;6.988;2022-10-15T09:13:17;0.90;;;0.73;;
10170;SDS011;5127;50.922;6.988;2022-10-15T09:15:50;0.80;;;0.80;;
10170;SDS011;5127;50.922;6.988;2022-10-15T09:18:22;0.70;;;0.70;;
10170;SDS011;5127;50.922;6.988;2022-10-15T09:20:51;1.57;;;0.60;;
10170;SDS011;5127;50.922;6.988;2022-10-15T09:23:20;0.80;;;0.80;;
10170;SDS011;5127;50.922;6.988;2022-10-15T09:25:52;0.50;;;0.50;;
10170;SDS011;5127;50.922;6.988;2022-10-15T09:28:28;0.77;;;0.67;;
10170;SDS011;5127;50.922;6.988;2022-10-15T09:31:02;1.50;;;0.50;;
10170;SDS011;5127;50.922;6.988;2022-10-15T09:33:32;0.60;;;0.60;;
10170;SDS011;5127;50.922;6.988;2022-10-15T09:36:10;1.07;;;0.70;;
10170;SDS011;5127;50.922;6.988;2022-10-15T09:38:53;0.80;;;0.60;;
10170;SDS011;5127;50.922;6.988;2022-10-15T09:41:31;0.73;;;0.70;;
10170;SDS011;5127;50.922;6.988;2022-10-15T09:44:11;0.50;;;0.50;;
10170;SDS011;5127;50.922;6.988;2022-10-15T09:46:46;1.45;;;0.50;;
10170;SDS011;5127;50.922;6.988;2022-10-15T09:49:15;0.95;;;0.65;;
10170;SDS011;5127;50.922;6.988;2022-10-15T09:51:51;0.60;;;0.60;;
10170;SDS011;5127;50.922;6.988;2022-10-15T09:54:26;0.50;;;0.50;;
10170;SDS011;5127;50.922;6.988;2022-10-15T09:57:00;0.60;;;0.60;;
10170;SDS011;5127;50.922;6.988;2022-10-15T09:59:29;1.85;;;0.50;;
10170;SDS011;5127;50.922;6.988;2022-10-15T10:02:01;0.60;;;0.60;;
10170;SDS011;5127;50.922;6.988;2022-10-15T10:04:31;2.60;;;0.75;;
10170;SDS011;5127;50.922;6.988;2022-10-15T10:07:02;1.58;;;0.82;;
10170;SDS011;5127;50.922;6.988;2022-10-15T10:09:32;0.73;;;0.70;;
10170;SDS011;5127;50.922;6.988;2022-10-15T10:12:03;0.70;;;0.45;;
10170;SDS011;5127;50.922;6.988;2022-10-15T10:14:34;0.80;;;0.60;;
10170;SDS011;5127;50.922;6.988;2022-10-15T10:20:02;0.50;;;0.50;;
10170;SDS011;5127;50.922;6.988;2022-10-15T10:22:42;1.95;;;0.40;;
10170;SDS011;5127;50.922;6.988;2022-10-15T10:25:31;0.50;;;0.50;;
10170;SDS011;5127;50.922;6.988;2022-10-15T10:28:03;0.38;;;0.38;;
10170;SDS011;5127;50.922;6.988;2022-10-15T10:30:42;0.40;;;0.40;;
10170;SDS011;5127;50.922;6.988;2022-10-15T10:33:23;0.38;;;0.38;;
10170;SDS011;5127;50.922;6.988;2022-10-15T10:35:53;0.40;;;0.40;;
10170;SDS011;5127;50.922;6.988;2022-10-15T10:38:22;0.20;;;0.20;;
10170;SDS011;5127;50.922;6.988;2022-10-15T10:40:51;1.48;;;0.57;;
10170;SDS011;5127;50.922;6.988;2022-10-15T10:43:23;0.35;;;0.35;;
10170;SDS011;5127;50.922;6.988;2022-10-15T10:45:54;0.30;;;0.30;;
10170;SDS011;5127;50.922;6.988;2022-10-15T10:48:24;1.52;;;0.30;;
10170;SDS011;5127;50.922;6.988;2022-10-15T10:51:03;0.47;;;0.30;;
10170;SDS011;5127;50.922;6.988;2022-10-15T10:53:39;1.73;;;0.50;;
10170;SDS011;5127;50.922;6.988;2022-10-15T10:56:13;0.30;;;0.30;;
10170;SDS011;5127;50.922;6.988;2022-10-15T10:58:42;0.30;;;0.30;;
10170;SDS011;5127;50.922;6.988;2022-10-15T11:01:12;0.40;;;0.40;;
10170;SDS011;5127;50.922;6.988;2022-10-15T11:03:41;0.40;;;0.40;;
10170;SDS011;5127;50.922;6.988;2022-10-15T11:06:25;0.40;;;0.40;;
10170;SDS011;5127;50.922;6.988;2022-10-15T11:09:16;0.50;;;0.50;;
10170;SDS011;5127;50.922;6.988;2022-10-15T11:11:57;0.60;;;0.52;;
10170;SDS011;5127;50.922;6.988;2022-10-15T11:14:32;1.77;;;0.50;;
10170;SDS011;5127;50.922;6.988;2022-10-15T11:17:12;0.20;;;0.20;;
10170;SDS011;5127;50.922;6.988;2022-10-15T11:19:44;2.00;;;0.35;;
10170;SDS011;5127;50.922;6.988;2022-10-15T11:22:23;1.10;;;0.30;;
10170;SDS011;5127;50.922;6.988;2022-10-15T11:25:03;0.28;;;0.28;;
10170;SDS011;5127;50.922;6.988;2022-10-15T11:27:45;0.30;;;0.20;;
10170;SDS011;5127;50.922;6.988;2022-10-15T11:30:27;0.20;;;0.20;;
10170;SDS011;5127;50.922;6.988;2022-10-15T11:33:04;1.17;;;0.10;;
10170;SDS011;5127;50.922;6.988;2022-10-15T11:35:42;0.15;;;0.15;;
10170;SDS011;5127;50.922;6.988;2022-10-15T11:38:18;0.20;;;0.20;;
10170;SDS011;5127;50.922;6.988;2022-10-15T11:40:55;0.20;;;0.20;;
10170;SDS011;5127;50.922;6.988;2022-10-15T11:43:38;1.38;;;0.20;;
10170;SDS011;5127;50.922;6.988;2022-10-15T11:46:28;1.27;;;0.17;;
10170;SDS011;5127;50.922;6.988;2022-10-15T11:49:07;0.20;;;0.20;;
10170;SDS011;5127;50.922;6.988;2022-10-15T11:51:49;0.20;;;0.20;;
10170;SDS011;5127;50.922;6.988;2022-10-15T11:54:34;0.08;;;0.08;;
10170;SDS011;5127;50.922;6.988;2022-10-15T11:57:07;0.20;;;0.13;;
10170;SDS011;5127;50.922;6.988;2022-10-15T11:59:38;0.47;;;0.47;;
10170;SDS011;5127;50.922;6.988;2022-10-15T12:02:12;0.60;;;0.60;;
10170;SDS011;5127;50.922;6.988;2022-10-15T12:04:45;0.68;;;0.50;;
10170;SDS011;5127;50.922;6.988;2022-10-15T12:07:15;1.00;;;0.38;;
10170;SDS011;5127;50.922;6.988;2022-10-15T12:09:50;0.73;;;0.40;;
10170;SDS011;5127;50.922;6.988;2022-10-15T12:12:23;0.50;;;0.50;;
10170;SDS011;5127;50.922;6.988;2022-10-15T12:15:01;0.55;;;0.55;;
10170;SDS011;5127;50.922;6.988;2022-10-15T12:17:42;1.15;;;0.50;;
10170;SDS011;5127;50.922;6.988;2022-10-15T12:20:19;0.30;;;0.30;;
10170;SDS011;5127;50.922;6.988;2022-10-15T12:22:54;0.55;;;0.40;;
10170;SDS011;5127;50.922;6.988;2022-10-15T12:25:40;0.20;;;0.20;;
10170;SDS011;5127;50.922;6.988;2022-10-15T12:28:12;0.40;;;0.25;;
10170;SDS011;5127;50.922;6.988;2022-10-15T12:30:52;0.85;;;0.30;;
10170;SDS011;5127;50.922;6.988;2022-10-15T12:33:27;0.28;;;0.15;;
10170;SDS011;5127;50.922;6.988;2022-10-15T12:36:00;0.03;;;0.03;;
10170;SDS011;5127;50.922;6.988;2022-10-15T12:38:33;0.00;;;0.00;;
10170;SDS011;5127;50.922;6.988;2022-10-15T12:41:05;0.30;;;0.17;;
10170;SDS011;5127;50.922;6.988;2022-10-15T12:43:35;0.35;;;0.20;;
10170;SDS011;5127;50.922;6.988;2022-10-15T12:46:06;0.47;;;0.20;;
10170;SDS011;5127;50.922;6.988;2022-10-15T12:48:36;0.30;;;0.30;;
10170;SDS011;5127;50.922;6.988;2022-10-15T12:54:01;0.10;;;0.10;;
10170;SDS011;5127;50.922;6.988;2022-10-15T12:56:48;0.32;;;0.30;;
10170;SDS011;5127;50.922;6.988;2022-10-15T12:59:28;0.20;;;0.20;;
10170;SDS011;5127;50.922;6.988;2022-10-15T13:02:28;0.80;;;0.38;;
10170;SDS011;5127;50.922;6.988;2022-10-15T13:05:01;0.22;;;0.22;;
10170;SDS011;5127;50.922;6.988;2022-10-15T13:07:29;0.50;;;0.50;;
10170;SDS011;5127;50.922;6.988;2022-10-15T13:10:00;0.52;;;0.50;;
10170;SDS011;5127;50.922;6.988;2022-10-15T13:12:29;1.15;;;0.47;;
10170;SDS011;5127;50.922;6.988;2022-10-15T13:14:58;0.52;;;0.30;;
10170;SDS011;5127;50.922;6.988;2022-10-15T13:17:28;0.20;;;0.20;;
10170;SDS011;5127;50.922;6.988;2022-10-15T13:19:57;0.40;;;0.30;;
10170;SDS011;5127;50.922;6.988;2022-10-15T13:22:29;0.60;;;0.40;;
10170;SDS011;5127;50.922;6.988;2022-10-15T13:24:58;0.30;;;0.30;;
10170;SDS011;5127;50.922;6.988;2022-10-15T13:27:28;0.40;;;0.38;;
10170;SDS011;5127;50.922;6.988;2022-10-15T13:29:57;0.20;;;0.20;;
10170;SDS011;5127;50.922;6.988;2022-10-15T13:32:26;0.20;;;0.20;;
10170;SDS011;5127;50.922;6.988;2022-10-15T13:34:55;0.40;;;0.40;;
10170;SDS011;5127;50.922;6.988;2022-10-15T13:37:25;0.88;;;0.40;;
10170;SDS011;5127;50.922;6.988;2022-10-15T13:39:56;0.30;;;0.30;;
10170;SDS011;5127;50.922;6.988;2022-10-15T13:42:25;0.80;;;0.32;;
10170;SDS011;5127;50.922;6.988;2022-10-15T13:44:58;0.30;;;0.30;;
10170;SDS011;5127;50.922;6.988;2022-10-15T13:47:28;0.50;;;0.40;;
10170;SDS011;5127;50.922;6.988;2022-10-15T13:50:15;1.23;;;0.40;;
10170;SDS011;5127;50.922;6.988;2022-10-15T13:52:46;0.28;;;0.28;;
10170;SDS011;5127;50.922;6.988;2022-10-15T13:55:18;0.65;;;0.30;;
10170;SDS011;5127;50.922;6.988;2022-10-15T13:57:49;0.75;;;0.38;;
10170;SDS011;5127;50.922;6.988;2022-10-15T14:00:22;0.80;;;0.38;;
10170;SDS011;5127;50.922;6.988;2022-10-15T14:03:05;0.25;;;0.25;;
10170;SDS011;5127;50.922;6.988;2022-10-15T14:05:33;0.20;;;0.20;;
10170;SDS011;5127;50.922;6.988;2022-10-15T14:08:01;1.55;;;0.22;;
10170;SDS011;5127;50.922;6.988;2022-10-15T14:10:28;0.17;;;0.17;;
10170;SDS011;5127;50.922;6.988;2022-10-15T14:12:57;0.20;;;0.20;;
10170;SDS011;5127;50.922;6.988;2022-10-15T14:15:38;0.17;;;0.17;;
10170;SDS011;5127;50.922;6.988;2022-10-15T14:18:10;0.10;;;0.10;;
10170;SDS011;5127;50.922;6.988;2022-10-15T14:20:44;0.08;;;0.08;;
10170;SDS011;5127;50.922;6.988;2022-10-15T14:23:14;0.40;;;0.10;;
10170;SDS011;5127;50.922;6.988;2022-10-15T14:25:42;0.20;;;0.20;;
10170;SDS011;5127;50.922;6.988;2022-10-15T14:28:18;0.20;;;0.20;;
10170;SDS011;5127;50.922;6.988;2022-10-15T14:30:47;0.10;;;0.10;;
10170;SDS011;5127;50.922;6.988;2022-10-15T14:33:31;0.10;;;0.10;;
10170;SDS011;5127;50.922;6.988;2022-10-15T14:36:06;0.95;;;0.20;;
10170;SDS011;5127;50.922;6.988;2022-10-15T14:38:37;0.20;;;0.20;;
10170;SDS011;5127;50.922;6.988;2022-10-15T14:41:14;0.20;;;0.20;;
10170;SDS011;5127;50.922;6.988;2022-10-15T14:44:02;0.20;;;0.20;;
10170;SDS011;5127;50.922;6.988;2022-10-15T14:46:43;0.35;;;0.20;;
10170;SDS011;5127;50.922;6.988;2022-10-15T14:49:22;0.30;;;0.30;;
10170;SDS011;5127;50.922;6.988;2022-10-15T14:51:55;0.28;;;0.20;;
10170;SDS011;5127;50.922;6.988;2022-10-15T14:54:25;0.60;;;0.30;;
10170;SDS011;5127;50.922;6.988;2022-10-15T14:56:58;0.20;;;0.20;;
10170;SDS011;5127;50.922;6.988;2022-10-15T14:59:28;0.20;;;0.20;;
10170;SDS011;5127;50.922;6.988;2022-10-15T15:01:59;0.20;;;0.20;;
10170;SDS011;5127;50.922;6.988;2022-10-15T15:04:37;0.20;;;0.20;;
10170;SDS011;5127;50.922;6.988;2022-10-15T15:07:13;0.30;;;0.30;;
10170;SDS011;5127;50.922;6.988;2022-10-15T15:09:48;0.20;;;0.20;;
10170;SDS011;5127;50.922;6.988;2022-10-15T15:12:20;0.35;;;0.30;;
10170;SDS011;5127;50.922;6.988;2022-10-15T15:14:52;0.32;;;0.20;;
10170;SDS011;5127;50.922;6.988;2022-10-15T15:17:20;0.40;;;0.40;;
10170;SDS011;5127;50.922;6.988;2022-10-15T15:19:49;0.52;;;0.30;;
10170;SDS011;5127;50.922;6.988;2022-10-15T15:22:20;0.30;;;0.30;;
10170;SDS011;5127;50.922;6.988;2022-10-15T15:24:50;0.50;;;0.50;;
10170;SDS011;5127;50.922;6.988;2022-10-15T15:27:21;0.40;;;0.40;;
10170;SDS011;5127;50.922;6.988;2022-10-15T15:29:52;0.35;;;0.35;;
10170;SDS011;5127;50.922;6.988;2022-10-15T15:32:20;0.40;;;0.40;;
10170;SDS011;5127;50.922;6.988;2022-10-15T15:34:48;0.30;;;0.30;;
10170;SDS011;5127;50.922;6.988;2022-10-15T15:37:18;0.20;;;0.20;;